createdAt,value
2022-11-24T00:02:06.359Z,96345.38
2022-11-24T00:04:33.125Z,96351.25
2022-11-24T00:06:59.782Z,96359.69
2022-11-24T00:09:26.307Z,96359.59
2022-11-24T00:11:52.800Z,96356.16
2022-11-24T00:14:19.892Z,96349.34
2022-11-24T00:16:46.462Z,96362.38
2022-11-24T00:19:18.353Z,96351.03
2022-11-24T00:21:46.296Z,96350.28
2022-11-24T00:24:12.775Z,96356.31
2022-11-24T00:26:39.474Z,96352.66
2022-11-24T00:29:07.801Z,96360.19
2022-11-24T00:31:40.184Z,96357.38
2022-11-24T00:34:10.849Z,96357.38
2022-11-24T00:36:38.674Z,96361.63
2022-11-24T00:39:12.494Z,96354.78
2022-11-24T00:41:41.501Z,96358.13
2022-11-24T00:44:08.548Z,96352.69
2022-11-24T00:46:35.251Z,96352.59
2022-11-24T00:49:01.993Z,96354.94
2022-11-24T00:51:32.362Z,96365.22
2022-11-24T00:54:00.218Z,96357.31
2022-11-24T00:56:28.030Z,96371.94
2022-11-24T00:58:54.992Z,96369.34
2022-11-24T01:01:32.279Z,96374.28
2022-11-24T01:07:15.075Z,96373.88
2022-11-24T01:09:45.908Z,96375.50
2022-11-24T01:12:12.411Z,96383.22
2022-11-24T01:14:39.226Z,96394.09
2022-11-24T01:17:05.745Z,96397.31
2022-11-24T01:19:32.286Z,96401.47
2022-11-24T01:21:58.826Z,96408.13
2022-11-24T01:24:25.355Z,96405.38
2022-11-24T01:26:51.831Z,96413.88
2022-11-24T01:29:18.404Z,96416.88
2022-11-24T01:31:44.924Z,96414.47
2022-11-24T01:34:12.536Z,96419.28
2022-11-24T01:36:39.721Z,96431.53
2022-11-24T01:39:06.336Z,96436.50
2022-11-24T01:41:34.830Z,96437.91
2022-11-24T01:44:01.401Z,96440.94
2022-11-24T01:46:36.960Z,96439.84
2022-11-24T01:49:20.891Z,96437.16
2022-11-24T01:51:59.804Z,96446.41
2022-11-24T01:54:38.663Z,96449.09
2022-11-24T01:57:22.080Z,96446.84
2022-11-24T01:59:53.900Z,96445.31
2022-11-24T02:02:21.277Z,96454.97
2022-11-24T02:04:48.568Z,96455.84
2022-11-24T02:07:15.932Z,96454.47
2022-11-24T02:09:49.479Z,96459.34
2022-11-24T02:12:16.029Z,96469.47
2022-11-24T02:14:44.745Z,96465.56
2022-11-24T02:17:11.505Z,96470.97
2022-11-24T02:19:52.943Z,96472.06
2022-11-24T02:22:44.300Z,96485.59
2022-11-24T02:25:34.648Z,96489.91
2022-11-24T02:28:17.484Z,96491.41
2022-11-24T02:30:44.573Z,96483.50
2022-11-24T02:33:12.635Z,96494.53
2022-11-24T02:35:42.193Z,96492.00
2022-11-24T02:38:58.553Z,96503.34
2022-11-24T02:41:27.303Z,96509.75
2022-11-24T02:44:01.681Z,96504.56
2022-11-24T02:46:28.221Z,96511.94
2022-11-24T02:48:54.833Z,96512.53
2022-11-24T02:51:21.440Z,96519.84
2022-11-24T02:53:53.955Z,96527.84
2022-11-24T03:08:02.611Z,96529.25
2022-11-24T03:11:14.076Z,96538.50
2022-11-24T03:13:40.577Z,96547.84
2022-11-24T03:16:09.595Z,96552.72
2022-11-24T03:18:36.268Z,96549.19
2022-11-24T03:21:02.770Z,96554.50
2022-11-24T03:23:29.263Z,96555.75
2022-11-24T03:25:55.786Z,96557.97
2022-11-24T03:28:22.356Z,96564.94
2022-11-24T03:30:49.465Z,96555.66
2022-11-24T03:33:15.958Z,96559.25
2022-11-24T03:35:42.468Z,96549.31
2022-11-24T03:38:09.061Z,96556.91
2022-11-24T03:40:35.555Z,96544.06
2022-11-24T03:49:29.335Z,96565.25
2022-11-24T04:03:26.879Z,96565.03
2022-11-24T04:05:53.862Z,96581.78
2022-11-24T04:08:20.695Z,96588.25
2022-11-24T04:10:52.414Z,96584.72
2022-11-24T04:13:24.246Z,96591.31
2022-11-24T04:15:51.562Z,96599.09
2022-11-24T04:18:18.308Z,96590.88
2022-11-24T04:20:45.104Z,96587.75
2022-11-24T04:23:11.677Z,96604.69
2022-11-24T04:25:38.381Z,96610.94
2022-11-24T04:28:05.028Z,96611.72
2022-11-24T04:30:31.734Z,96618.06
2022-11-24T04:32:58.889Z,96624.09
2022-11-24T04:35:25.626Z,96626.06
2022-11-24T04:37:52.175Z,96623.97
2022-11-24T04:40:19.652Z,96621.09
2022-11-24T04:42:54.491Z,96626.16
2022-11-24T04:45:21.763Z,96626.00
2022-11-24T04:47:48.292Z,96634.41
2022-11-24T04:50:14.842Z,96628.88
2022-11-24T04:52:41.334Z,96634.09
2022-11-24T04:55:08.390Z,96655.22
2022-11-24T04:57:34.925Z,96658.22
2022-11-24T05:00:01.424Z,96668.66
2022-11-24T05:02:27.941Z,96670.34
2022-11-24T05:04:54.417Z,96674.75
2022-11-24T05:07:20.982Z,96672.28
2022-11-24T05:10:06.046Z,96667.13
2022-11-24T05:12:32.767Z,96672.13
2022-11-24T05:15:00.211Z,96663.66
2022-11-24T05:17:35.843Z,96664.41
2022-11-24T05:20:02.818Z,96668.00
2022-11-24T05:22:30.243Z,96680.53
2022-11-24T05:24:56.794Z,96685.88
2022-11-24T05:27:23.471Z,96684.72
2022-11-24T05:29:50.134Z,96682.94
2022-11-24T05:32:16.710Z,96679.97
2022-11-24T05:34:43.322Z,96695.34
2022-11-24T05:37:09.817Z,96688.75
2022-11-24T05:39:37.201Z,96691.13
2022-11-24T05:42:25.848Z,96689.44
2022-11-24T05:44:53.428Z,96699.09
2022-11-24T05:47:20.725Z,96699.09
2022-11-24T05:49:47.850Z,96703.41
2022-11-24T05:52:14.387Z,96701.66
2022-11-24T05:54:40.930Z,96709.59
2022-11-24T05:57:07.404Z,96711.53
2022-11-24T05:59:35.116Z,96712.53
2022-11-24T06:02:01.961Z,96715.91
2022-11-24T06:04:28.651Z,96715.91
2022-11-24T06:06:55.189Z,96716.69
2022-11-24T06:09:21.802Z,96714.75
2022-11-24T06:11:48.924Z,96714.06
2022-11-24T06:14:15.512Z,96717.69
2022-11-24T06:16:42.159Z,96720.34
2022-11-24T06:19:10.445Z,96720.34
2022-11-24T06:21:37.260Z,96730.78
2022-11-24T06:24:04.349Z,96730.56
2022-11-24T06:26:30.900Z,96744.50
2022-11-24T06:28:57.438Z,96750.13
2022-11-24T06:31:24.029Z,96743.00
2022-11-24T06:33:50.622Z,96746.84
2022-11-24T06:36:17.203Z,96749.91
2022-11-24T06:38:43.731Z,96740.59
2022-11-24T06:41:14.152Z,96736.13
2022-11-24T06:43:41.030Z,96742.13
2022-11-24T06:46:08.007Z,96742.66
2022-11-24T06:48:34.652Z,96755.63
2022-11-24T06:51:06.381Z,96756.41
2022-11-24T06:53:38.228Z,96767.94
2022-11-24T06:56:15.627Z,96772.31
2022-11-24T06:58:45.012Z,96772.31
2022-11-24T07:01:23.015Z,96768.44
2022-11-24T07:03:50.787Z,96776.19
2022-11-24T07:06:18.673Z,96771.66
2022-11-24T07:08:45.594Z,96775.59
2022-11-24T07:11:15.676Z,96773.50
2022-11-24T07:13:45.827Z,96782.13
2022-11-24T07:16:13.788Z,96780.31
2022-11-24T07:18:40.394Z,96783.53
2022-11-24T07:21:07.989Z,96786.06
2022-11-24T07:23:34.500Z,96795.50
2022-11-24T07:26:08.836Z,96788.16
2022-11-24T07:28:39.479Z,96797.28
2022-11-24T07:31:10.476Z,96795.16
2022-11-24T07:33:37.434Z,96795.91
2022-11-24T07:36:05.725Z,96790.25
2022-11-24T07:38:32.975Z,96801.97
2022-11-24T07:41:07.488Z,96816.84
2022-11-24T07:43:35.717Z,96803.28
2022-11-24T07:46:02.886Z,96805.59
2022-11-24T07:48:29.614Z,96810.59
2022-11-24T07:50:59.322Z,96806.97
2022-11-24T07:53:26.064Z,96808.63
2022-11-24T07:55:54.741Z,96807.00
2022-11-24T07:58:21.810Z,96807.03
2022-11-24T08:00:48.824Z,96809.88
2022-11-24T08:03:15.750Z,96807.81
2022-11-24T08:06:00.993Z,96809.91
2022-11-24T08:08:33.305Z,96812.50
2022-11-24T08:11:08.543Z,96814.81
2022-11-24T08:13:36.333Z,96821.38
2022-11-24T08:16:07.854Z,96804.31
2022-11-24T08:18:35.900Z,96802.00
2022-11-24T08:21:03.287Z,96811.97
2022-11-24T08:23:30.797Z,96818.16
2022-11-24T08:26:00.624Z,96818.78
2022-11-24T08:28:27.093Z,96811.84
2022-11-24T08:30:53.579Z,96810.06
2022-11-24T08:33:20.328Z,96804.03
2022-11-24T08:35:46.850Z,96799.16
2022-11-24T08:38:13.355Z,96814.34
2022-11-24T08:40:39.904Z,96804.53
2022-11-24T08:43:06.433Z,96797.03
2022-11-24T08:45:36.730Z,96805.41
2022-11-24T08:48:07.564Z,96794.78
2022-11-24T08:50:35.615Z,96796.28
2022-11-24T08:53:02.088Z,96800.28
2022-11-24T08:55:28.564Z,96793.84
2022-11-24T08:57:55.153Z,96796.91
2022-11-24T09:00:22.404Z,96792.47
2022-11-24T09:02:57.093Z,96801.50
2022-11-24T09:05:50.628Z,96796.28
2022-11-24T09:08:10.662Z,96784.34
2022-11-24T09:10:37.651Z,96796.53
2022-11-24T09:13:04.541Z,96785.13
2022-11-24T09:15:31.015Z,96796.81
2022-11-24T09:17:57.510Z,96794.44
2022-11-24T09:20:24.042Z,96796.59
2022-11-24T09:22:50.583Z,96798.41
2022-11-24T09:25:17.279Z,96793.78
2022-11-24T09:27:43.829Z,96796.19
2022-11-24T09:30:10.928Z,96801.41
2022-11-24T09:32:37.672Z,96795.94
2022-11-24T09:35:04.706Z,96798.03
2022-11-24T09:37:33.005Z,96797.56
2022-11-24T09:39:59.795Z,96809.47
2022-11-24T09:42:53.830Z,96805.19
2022-11-24T09:46:04.981Z,96809.31
2022-11-24T09:48:38.378Z,96812.13
2022-11-24T09:51:05.878Z,96805.00
2022-11-24T09:53:39.347Z,96811.69
2022-11-24T09:56:17.646Z,96807.09
2022-11-24T09:58:51.955Z,96807.16
2022-11-24T10:01:26.195Z,96811.63
2022-11-24T10:03:54.094Z,96809.50
2022-11-24T10:06:22.745Z,96809.34
2022-11-24T10:09:04.325Z,96800.72
2022-11-24T10:11:38.554Z,96805.75
2022-11-24T10:14:18.235Z,96804.16
2022-11-24T10:17:16.568Z,96810.56
2022-11-24T10:19:45.988Z,96818.09
2022-11-24T10:22:28.622Z,96811.50
2022-11-24T10:25:09.054Z,96817.16
2022-11-24T10:27:47.507Z,96808.69
2022-11-24T10:30:20.298Z,96807.25
2022-11-24T10:32:57.188Z,96805.88
2022-11-24T10:35:34.811Z,96802.25
2022-11-24T10:38:29.790Z,96805.13
2022-11-24T10:41:07.845Z,96809.84
2022-11-24T10:43:34.405Z,96800.41
2022-11-24T10:46:11.712Z,96812.59
2022-11-24T10:48:45.403Z,96803.00
2022-11-24T10:51:40.121Z,96801.69
2022-11-24T10:54:16.944Z,96795.63
2022-11-24T10:56:45.499Z,96788.00
2022-11-24T10:59:24.209Z,96795.97
2022-11-24T11:01:53.760Z,96797.28
2022-11-24T11:04:32.511Z,96798.41
2022-11-24T11:07:28.278Z,96803.59
2022-11-24T11:10:19.797Z,96803.44
2022-11-24T11:12:46.687Z,96801.28
2022-11-24T11:15:31.695Z,96799.75
2022-11-24T11:18:01.463Z,96802.34
2022-11-24T11:20:31.713Z,96801.97
2022-11-24T11:23:01.679Z,96805.63
2022-11-24T11:25:34.225Z,96802.91
2022-11-24T11:28:38.021Z,96794.13
2022-11-24T11:31:17.343Z,96809.78
2022-11-24T11:34:20.865Z,96810.56
2022-11-24T11:36:56.201Z,96814.78
2022-11-24T11:39:47.001Z,96813.25
2022-11-24T11:43:01.364Z,96807.84
2022-11-24T11:45:35.403Z,96811.19
2022-11-24T11:48:18.481Z,96807.97
2022-11-24T11:51:21.025Z,96807.13
2022-11-24T11:53:48.569Z,96809.16
2022-11-24T11:56:35.107Z,96804.97
2022-11-24T11:59:14.423Z,96805.56
2022-11-24T12:02:00.110Z,96815.53
2022-11-24T12:04:47.757Z,96805.22
2022-11-24T12:07:48.581Z,96811.47
2022-11-24T12:10:33.365Z,96824.97
2022-11-24T12:13:33.433Z,96843.84
2022-11-24T12:16:08.604Z,96861.94
2022-11-24T12:18:57.945Z,96864.16
2022-11-24T12:21:48.855Z,96871.03
2022-11-24T12:24:36.402Z,96884.72
2022-11-24T12:27:30.722Z,96877.34
2022-11-24T12:30:18.235Z,96875.75
2022-11-24T12:33:03.556Z,96879.56
2022-11-24T12:36:19.233Z,96885.03
2022-11-24T12:39:14.954Z,96888.94
2022-11-24T12:42:14.795Z,96894.75
2022-11-24T12:44:59.955Z,96898.03
2022-11-24T12:47:44.768Z,96898.41
2022-11-24T12:50:18.926Z,96894.91
2022-11-24T12:53:00.691Z,96901.94
2022-11-24T12:55:29.048Z,96904.28
2022-11-24T12:57:57.442Z,96907.88
2022-11-24T13:00:31.795Z,96902.66
2022-11-24T13:03:24.081Z,96907.13
2022-11-24T13:06:16.577Z,96908.81
2022-11-24T13:08:43.494Z,96905.16
2022-11-24T13:11:22.113Z,96899.44
2022-11-24T13:13:59.604Z,96901.03
2022-11-24T13:16:59.297Z,96906.78
2022-11-24T13:19:33.607Z,96904.00
2022-11-24T13:22:09.350Z,96904.34
2022-11-24T13:24:38.872Z,96904.13
2022-11-24T13:27:15.266Z,96906.53
2022-11-24T13:29:45.492Z,96904.28
2022-11-24T13:32:11.940Z,96910.00
2022-11-24T13:34:42.692Z,96900.81
2022-11-24T13:37:34.257Z,96907.16
2022-11-24T13:40:11.620Z,96906.28
2022-11-24T13:42:57.287Z,96909.19
2022-11-24T13:45:39.047Z,96909.13
2022-11-24T13:48:21.496Z,96909.06
2022-11-24T13:50:52.152Z,96911.91
2022-11-24T13:53:40.679Z,96919.38
2022-11-24T13:56:13.295Z,96929.03
2022-11-24T13:58:42.755Z,96927.22
2022-11-24T14:01:26.106Z,96930.56
2022-11-24T14:04:33.284Z,96937.84
2022-11-24T14:07:11.988Z,96941.22
2022-11-24T14:09:50.924Z,96947.59
2022-11-24T14:12:20.347Z,96950.53
2022-11-24T14:14:49.359Z,96947.66
2022-11-24T14:17:17.625Z,96960.59
2022-11-24T14:19:49.554Z,96963.44
2022-11-24T14:22:34.637Z,96965.03
2022-11-24T14:25:02.748Z,96968.69
2022-11-24T14:27:35.045Z,96969.88
2022-11-24T14:30:23.800Z,96974.47
2022-11-24T14:33:01.810Z,96973.72
2022-11-24T14:35:34.202Z,96982.91
2022-11-24T14:38:05.544Z,96987.09
2022-11-24T14:40:53.069Z,96983.91
2022-11-24T14:43:21.305Z,96976.03
2022-11-24T14:46:07.236Z,96970.22
2022-11-24T14:48:46.714Z,96970.66
2022-11-24T14:51:18.171Z,96976.63
2022-11-24T14:53:46.825Z,96982.22
2022-11-24T14:56:19.315Z,96984.25
2022-11-24T14:58:45.797Z,96981.66
2022-11-24T15:01:27.524Z,96990.44
2022-11-24T15:04:26.584Z,96991.94
2022-11-24T15:07:22.699Z,97008.38
2022-11-24T15:10:00.264Z,97004.38
2022-11-24T15:12:30.772Z,97005.00
2022-11-24T15:15:20.446Z,97007.59
2022-11-24T15:17:57.173Z,97012.94
2022-11-24T15:20:30.645Z,97018.25
2022-11-24T15:23:29.171Z,97016.81
2022-11-24T15:25:57.220Z,97011.75
2022-11-24T15:28:27.268Z,97021.72
2022-11-24T15:30:54.690Z,97027.22
2022-11-24T15:33:22.811Z,97020.75
2022-11-24T15:35:49.792Z,97023.19
2022-11-24T15:38:16.927Z,97030.03
2022-11-24T15:40:48.086Z,97034.41
2022-11-24T15:43:18.246Z,97035.94
2022-11-24T15:45:44.769Z,97037.63
2022-11-24T15:48:16.326Z,97041.25
2022-11-24T15:50:45.094Z,97045.84
2022-11-24T15:53:20.058Z,97050.09
2022-11-24T15:55:47.542Z,97063.00
2022-11-24T15:58:15.199Z,97061.31
2022-11-24T16:00:42.729Z,97066.16
2022-11-24T16:03:44.405Z,97064.28
2022-11-24T16:05:57.224Z,97080.06
2022-11-24T16:08:23.822Z,97073.84
2022-11-24T16:10:51.224Z,97081.03
2022-11-24T16:13:17.789Z,97086.19
2022-11-24T16:15:45.824Z,97079.41
2022-11-24T16:18:13.955Z,97092.47
2022-11-24T16:20:40.617Z,97087.16
2022-11-24T16:23:07.206Z,97092.91
2022-11-24T16:25:33.813Z,97101.84
2022-11-24T16:28:00.267Z,97098.03
2022-11-24T16:30:26.831Z,97108.06
2022-11-24T16:32:53.470Z,97118.66
2022-11-24T16:35:20.272Z,97114.75
2022-11-24T16:37:46.816Z,97109.97
2022-11-24T16:40:13.491Z,97118.19
2022-11-24T16:42:40.181Z,97120.34
2022-11-24T16:45:07.386Z,97128.25
2022-11-24T16:47:39.773Z,97117.16
2022-11-24T16:50:08.233Z,97119.13
2022-11-24T16:52:34.793Z,97116.66
2022-11-24T16:55:01.841Z,97123.97
2022-11-24T16:57:28.348Z,97124.56
2022-11-24T16:59:54.936Z,97114.72
2022-11-24T17:02:21.437Z,97128.28
2022-11-24T17:04:49.707Z,97126.75
2022-11-24T17:07:16.180Z,97123.25
2022-11-24T17:09:42.744Z,97122.63
2022-11-24T17:12:09.343Z,97124.69
2022-11-24T17:14:36.289Z,97120.53
2022-11-24T17:17:04.011Z,97124.13
2022-11-24T17:19:31.849Z,97122.66
2022-11-24T17:21:58.428Z,97129.91
2022-11-24T17:24:24.931Z,97137.31
2022-11-24T17:26:51.939Z,97139.50
2022-11-24T17:29:19.109Z,97138.97
2022-11-24T17:31:45.883Z,97134.22
2022-11-24T17:34:12.647Z,97133.22
2022-11-24T17:36:44.175Z,97130.78
2022-11-24T17:39:11.095Z,97136.00
2022-11-24T17:41:38.119Z,97144.53
2022-11-24T17:44:04.637Z,97140.38
2022-11-24T17:46:31.402Z,97149.22
2022-11-24T17:48:58.366Z,97146.72
2022-11-24T17:51:26.584Z,97140.75
2022-11-24T17:53:54.341Z,97147.97
2022-11-24T17:56:23.764Z,97144.97
2022-11-24T17:58:55.168Z,97151.56
2022-11-24T18:01:22.912Z,97149.38
2022-11-24T18:03:53.403Z,97158.75
2022-11-24T18:06:21.162Z,97158.56
2022-11-24T18:08:47.931Z,97153.94
2022-11-24T18:11:17.424Z,97150.28
2022-11-24T18:16:33.292Z,97159.31
2022-11-24T18:19:08.916Z,97159.25
2022-11-24T18:21:40.635Z,97169.84
2022-11-24T18:24:08.981Z,97166.91
2022-11-24T18:26:35.570Z,97172.50
2022-11-24T18:29:02.067Z,97160.44
2022-11-24T18:31:29.520Z,97163.44
2022-11-24T18:33:56.680Z,97165.88
2022-11-24T18:36:30.019Z,97164.50
2022-11-24T18:38:57.032Z,97167.41
2022-11-24T18:41:23.521Z,97166.06
2022-11-24T18:43:50.006Z,97167.34
2022-11-24T18:46:17.603Z,97160.22
2022-11-24T18:48:45.122Z,97166.03
2022-11-24T18:51:15.098Z,97161.22
2022-11-24T18:53:43.171Z,97156.16
2022-11-24T18:56:15.983Z,97156.75
2022-11-24T18:58:43.960Z,97161.25
2022-11-24T19:01:18.664Z,97148.69
2022-11-24T19:03:49.200Z,97152.25
2022-11-24T19:06:20.135Z,97145.53
2022-11-24T19:08:47.611Z,97158.63
2022-11-24T19:11:21.744Z,97156.31
2022-11-24T19:13:49.824Z,97156.59
2022-11-24T19:16:17.701Z,97166.72
2022-11-24T19:18:50.229Z,97165.97
2022-11-24T19:21:19.939Z,97170.09
2022-11-24T19:23:46.534Z,97172.06
2022-11-24T19:26:13.097Z,97168.38
2022-11-24T19:28:39.659Z,97169.47
2022-11-24T19:31:09.213Z,97169.59
2022-11-24T19:33:35.868Z,97171.84
2022-11-24T19:36:04.826Z,97171.50
2022-11-24T19:38:32.854Z,97172.63
2022-11-24T19:41:11.325Z,97172.72
2022-11-24T19:43:38.435Z,97182.28
2022-11-24T19:46:07.274Z,97177.22
2022-11-24T19:48:36.601Z,97180.69
2022-11-24T19:51:05.349Z,97185.44
2022-11-24T19:53:32.457Z,97179.72
2022-11-24T19:56:05.884Z,97175.69
2022-11-24T19:58:33.010Z,97181.78
2022-11-24T20:01:13.151Z,97185.72
2022-11-24T20:03:41.429Z,97176.47
2022-11-24T20:06:09.497Z,97181.69
2022-11-24T20:08:37.690Z,97186.28
2022-11-24T20:11:11.937Z,97199.53
2022-11-24T20:13:40.453Z,97197.13
2022-11-24T20:16:15.401Z,97191.22
2022-11-24T20:18:44.291Z,97196.44
2022-11-24T20:21:22.085Z,97196.47
2022-11-24T20:24:01.183Z,97194.59
2022-11-24T20:26:33.961Z,97199.94
2022-11-24T20:29:01.122Z,97192.34
2022-11-24T20:31:50.012Z,97209.56
2022-11-24T20:34:17.493Z,97200.88
2022-11-24T20:36:45.816Z,97195.47
2022-11-24T20:39:25.298Z,97187.56
2022-11-24T20:41:52.972Z,97189.91
2022-11-24T20:44:22.059Z,97189.16
2022-11-24T20:46:49.395Z,97186.66
2022-11-24T20:49:19.137Z,97192.72
2022-11-24T20:51:54.278Z,97196.25
2022-11-24T20:54:21.126Z,97195.75
2022-11-24T20:56:48.034Z,97196.53
2022-11-24T20:59:17.917Z,97196.63
2022-11-24T21:01:46.029Z,97199.06
2022-11-24T21:04:15.893Z,97191.03
2022-11-24T21:06:42.404Z,97196.59
2022-11-24T21:09:09.317Z,97198.53
2022-11-24T21:11:37.823Z,97200.56
2022-11-24T21:14:05.059Z,97198.03
2022-11-24T21:16:34.679Z,97200.09
2022-11-24T21:19:04.061Z,97199.50
2022-11-24T21:21:37.484Z,97199.44
2022-11-24T21:24:07.138Z,97201.97
2022-11-24T21:26:37.968Z,97209.66
2022-11-24T21:29:05.299Z,97204.72
2022-11-24T21:31:35.882Z,97200.88
2022-11-24T21:34:02.737Z,97198.88
2022-11-24T21:36:31.435Z,97208.44
2022-11-24T21:38:58.873Z,97200.47
2022-11-24T21:41:27.576Z,97203.16
2022-11-24T21:43:58.097Z,97207.31
2022-11-24T21:46:25.017Z,97196.28
2022-11-24T21:48:51.962Z,97200.78
2022-11-24T21:51:20.301Z,97207.66
2022-11-24T21:53:47.872Z,97200.19
2022-11-24T21:56:17.042Z,97207.97
2022-11-24T21:58:48.494Z,97199.56
2022-11-24T22:01:16.406Z,97198.72
2022-11-24T22:03:43.452Z,97201.28
2022-11-24T22:06:10.295Z,97206.56
2022-11-24T22:08:36.882Z,97202.41
2022-11-24T22:11:10.406Z,97201.56
2022-11-24T22:13:37.036Z,97205.16
2022-11-24T22:16:06.586Z,97206.75
2022-11-24T22:18:35.333Z,97211.47
2022-11-24T22:21:05.796Z,97202.28
2022-11-24T22:23:33.830Z,97208.19
2022-11-24T22:26:13.097Z,97207.13
2022-11-24T22:28:39.645Z,97206.31
2022-11-24T22:31:08.252Z,97200.72
2022-11-24T22:33:34.862Z,97204.97
2022-11-24T22:36:01.940Z,97197.56
2022-11-24T22:38:30.328Z,97210.63
2022-11-24T22:41:09.802Z,97201.94
2022-11-24T22:43:38.491Z,97210.78
2022-11-24T22:46:07.214Z,97212.66
2022-11-24T22:48:34.226Z,97210.16
2022-11-24T22:51:09.970Z,97206.00
2022-11-24T22:53:37.135Z,97209.97
2022-11-24T22:56:06.238Z,97213.50
2022-11-24T22:58:33.575Z,97214.84
2022-11-24T23:01:06.608Z,97215.91
2022-11-24T23:03:34.763Z,97209.81
2022-11-24T23:06:03.039Z,97202.69
2022-11-24T23:08:32.064Z,97211.75
2022-11-24T23:11:04.559Z,97206.97
2022-11-24T23:13:31.247Z,97204.94
2022-11-24T23:16:18.190Z,97205.94
2022-11-24T23:18:49.793Z,97195.59
2022-11-24T23:21:20.317Z,97198.34
2022-11-24T23:23:48.377Z,97196.72
2022-11-24T23:26:25.153Z,97207.50
2022-11-24T23:28:51.725Z,97200.84
2022-11-24T23:31:21.497Z,97204.06
2022-11-24T23:33:48.192Z,97201.50
2022-11-24T23:36:17.338Z,97195.50
2022-11-24T23:38:44.825Z,97198.00
2022-11-24T23:41:23.060Z,97205.47
2022-11-24T23:43:50.713Z,97190.97
2022-11-24T23:46:20.539Z,97195.44
2022-11-24T23:48:48.060Z,97194.53
2022-11-24T23:51:17.226Z,97186.75
2022-11-24T23:53:44.468Z,97182.59
2022-11-24T23:56:23.681Z,97181.84
2022-11-24T23:58:50.677Z,97188.94
